sensor_id;sensor_type;location;lat;lon;timestamp;pressure;altitude;pressure_sealevel;temperature;humidity
59545;BME280;45368;55.002;-1.592;2022-11-04T00:00:53;99592.16;;;5.56;61.33
59545;BME280;45368;55.002;-1.592;2022-11-04T00:03:20;99593.79;;;5.89;60.39
59545;BME280;45368;55.002;-1.592;2022-11-04T00:05:47;99591.71;;;6.62;58.49
59545;BME280;45368;55.002;-1.592;2022-11-04T00:08:14;99592.91;;;7.20;56.81
59545;BME280;45368;55.002;-1.592;2022-11-04T00:10:40;99599.53;;;6.54;58.01
59545;BME280;45368;55.002;-1.592;2022-11-04T00:13:07;99602.14;;;6.02;58.39
59545;BME280;45368;55.002;-1.592;2022-11-04T00:15:36;99605.59;;;5.83;59.49
59545;BME280;45368;55.002;-1.592;2022-11-04T00:18:03;99606.06;;;6.88;56.99
59545;BME280;45368;55.002;-1.592;2022-11-04T00:20:30;99604.98;;;6.63;57.14
59545;BME280;45368;55.002;-1.592;2022-11-04T00:22:57;99602.85;;;6.67;57.22
59545;BME280;45368;55.002;-1.592;2022-11-04T00:25:24;99604.41;;;7.45;55.99
59545;BME280;45368;55.002;-1.592;2022-11-04T00:27:51;99610.73;;;6.85;56.98
59545;BME280;45368;55.002;-1.592;2022-11-04T00:30:18;99614.22;;;6.73;57.37
59545;BME280;45368;55.002;-1.592;2022-11-04T00:32:45;99617.48;;;7.40;55.48
59545;BME280;45368;55.002;-1.592;2022-11-04T00:35:13;99617.88;;;7.56;54.21
59545;BME280;45368;55.002;-1.592;2022-11-04T00:37:41;99624.80;;;7.20;54.66
59545;BME280;45368;55.002;-1.592;2022-11-04T00:40:12;99622.57;;;7.53;54.83
59545;BME280;45368;55.002;-1.592;2022-11-04T00:42:40;99631.46;;;6.71;55.88
59545;BME280;45368;55.002;-1.592;2022-11-04T00:45:09;99636.41;;;6.85;55.93
59545;BME280;45368;55.002;-1.592;2022-11-04T00:47:36;99633.79;;;7.64;54.18
59545;BME280;45368;55.002;-1.592;2022-11-04T00:50:04;99642.62;;;6.55;56.29
59545;BME280;45368;55.002;-1.592;2022-11-04T00:52:31;99645.15;;;7.22;55.22
59545;BME280;45368;55.002;-1.592;2022-11-04T00:54:59;99648.77;;;7.24;55.31
59545;BME280;45368;55.002;-1.592;2022-11-04T00:57:26;99651.67;;;6.54;56.48
59545;BME280;45368;55.002;-1.592;2022-11-04T00:59:58;99655.72;;;6.74;55.91
59545;BME280;45368;55.002;-1.592;2022-11-04T01:02:25;99662.20;;;7.02;55.33
59545;BME280;45368;55.002;-1.592;2022-11-04T01:04:52;99665.99;;;6.41;56.75
59545;BME280;45368;55.002;-1.592;2022-11-04T01:07:19;99659.22;;;7.35;54.72
59545;BME280;45368;55.002;-1.592;2022-11-04T01:09:45;99661.47;;;7.18;54.84
59545;BME280;45368;55.002;-1.592;2022-11-04T01:12:14;99664.13;;;7.34;54.41
59545;BME280;45368;55.002;-1.592;2022-11-04T01:14:41;99662.83;;;6.96;55.25
59545;BME280;45368;55.002;-1.592;2022-11-04T01:17:08;99669.37;;;6.52;56.39
59545;BME280;45368;55.002;-1.592;2022-11-04T01:19:35;99669.13;;;6.38;56.71
59545;BME280;45368;55.002;-1.592;2022-11-04T01:22:02;99669.60;;;7.14;54.81
59545;BME280;45368;55.002;-1.592;2022-11-04T01:24:29;99672.20;;;6.38;56.30
59545;BME280;45368;55.002;-1.592;2022-11-04T01:26:56;99676.45;;;5.54;58.46
59545;BME280;45368;55.002;-1.592;2022-11-04T01:29:23;99674.49;;;5.79;57.73
59545;BME280;45368;55.002;-1.592;2022-11-04T01:31:50;99679.44;;;6.64;56.18
59545;BME280;45368;55.002;-1.592;2022-11-04T01:34:16;99687.12;;;5.93;57.55
59545;BME280;45368;55.002;-1.592;2022-11-04T01:36:43;99686.22;;;6.55;55.99
59545;BME280;45368;55.002;-1.592;2022-11-04T01:39:11;99686.68;;;6.55;55.63
59545;BME280;45368;55.002;-1.592;2022-11-04T01:41:39;99688.24;;;5.98;57.05
59545;BME280;45368;55.002;-1.592;2022-11-04T01:44:48;99689.80;;;6.40;56.76
59545;BME280;45368;55.002;-1.592;2022-11-04T01:47:18;99692.00;;;6.04;57.14
59545;BME280;45368;55.002;-1.592;2022-11-04T01:49:49;99695.63;;;6.01;57.19
59545;BME280;45368;55.002;-1.592;2022-11-04T01:52:20;99699.23;;;6.55;56.41
59545;BME280;45368;55.002;-1.592;2022-11-04T01:54:50;99702.22;;;5.25;58.19
59545;BME280;45368;55.002;-1.592;2022-11-04T01:57:24;99707.46;;;6.20;56.97
59545;BME280;45368;55.002;-1.592;2022-11-04T01:59:52;99713.59;;;5.88;57.61
59545;BME280;45368;55.002;-1.592;2022-11-04T02:02:19;99723.98;;;4.68;60.18
59545;BME280;45368;55.002;-1.592;2022-11-04T02:04:46;99725.13;;;6.55;56.78
59545;BME280;45368;55.002;-1.592;2022-11-04T02:07:13;99725.22;;;6.44;56.52
59545;BME280;45368;55.002;-1.592;2022-11-04T02:09:41;99721.33;;;6.65;55.74
59545;BME280;45368;55.002;-1.592;2022-11-04T02:12:09;99717.93;;;6.84;54.91
59545;BME280;45368;55.002;-1.592;2022-11-04T02:14:37;99718.95;;;6.94;54.80
59545;BME280;45368;55.002;-1.592;2022-11-04T02:17:11;99727.35;;;6.46;56.15
59545;BME280;45368;55.002;-1.592;2022-11-04T02:19:58;99729.14;;;6.77;55.89
59545;BME280;45368;55.002;-1.592;2022-11-04T02:22:42;99728.68;;;6.65;55.48
59545;BME280;45368;55.002;-1.592;2022-11-04T02:25:36;99730.89;;;5.72;57.22
59545;BME280;45368;55.002;-1.592;2022-11-04T02:28:27;99728.79;;;6.60;56.26
59545;BME280;45368;55.002;-1.592;2022-11-04T02:31:05;99738.05;;;5.44;57.32
59545;BME280;45368;55.002;-1.592;2022-11-04T02:33:41;99739.13;;;6.19;56.41
59545;BME280;45368;55.002;-1.592;2022-11-04T02:36:21;99736.23;;;5.81;58.07
59545;BME280;45368;55.002;-1.592;2022-11-04T02:38:53;99736.43;;;6.52;56.08
59545;BME280;45368;55.002;-1.592;2022-11-04T02:41:27;99738.92;;;6.77;55.10
59545;BME280;45368;55.002;-1.592;2022-11-04T02:44:05;99747.78;;;6.46;55.82
59545;BME280;45368;55.002;-1.592;2022-11-04T02:46:38;99748.54;;;6.10;56.03
59545;BME280;45368;55.002;-1.592;2022-11-04T02:49:11;99741.30;;;6.14;56.49
59545;BME280;45368;55.002;-1.592;2022-11-04T02:51:43;99742.90;;;6.44;55.82
59545;BME280;45368;55.002;-1.592;2022-11-04T02:54:21;99750.42;;;6.09;56.60
59545;BME280;45368;55.002;-1.592;2022-11-04T02:56:52;99749.72;;;5.95;56.60
59545;BME280;45368;55.002;-1.592;2022-11-04T02:59:25;99752.36;;;6.27;57.70
59545;BME280;45368;55.002;-1.592;2022-11-04T03:01:53;99758.11;;;5.20;58.72
59545;BME280;45368;55.002;-1.592;2022-11-04T03:04:26;99758.76;;;6.35;56.98
59545;BME280;45368;55.002;-1.592;2022-11-04T03:06:56;99764.27;;;6.31;56.45
59545;BME280;45368;55.002;-1.592;2022-11-04T03:09:27;99762.63;;;6.58;56.12
59545;BME280;45368;55.002;-1.592;2022-11-04T03:11:59;99765.39;;;5.83;57.12
59545;BME280;45368;55.002;-1.592;2022-11-04T03:14:34;99769.42;;;6.61;56.03
59545;BME280;45368;55.002;-1.592;2022-11-04T03:17:06;99776.41;;;5.82;58.16
59545;BME280;45368;55.002;-1.592;2022-11-04T03:19:39;99779.98;;;6.16;56.96
59545;BME280;45368;55.002;-1.592;2022-11-04T03:22:10;99782.06;;;6.64;55.86
59545;BME280;45368;55.002;-1.592;2022-11-04T03:24:38;99785.11;;;6.15;56.49
59545;BME280;45368;55.002;-1.592;2022-11-04T03:27:12;99787.33;;;6.42;56.60
59545;BME280;45368;55.002;-1.592;2022-11-04T03:29:48;99792.03;;;5.23;57.83
59545;BME280;45368;55.002;-1.592;2022-11-04T03:32:23;99791.90;;;6.00;57.28
59545;BME280;45368;55.002;-1.592;2022-11-04T03:34:52;99801.24;;;5.54;57.96
59545;BME280;45368;55.002;-1.592;2022-11-04T03:37:20;99811.55;;;5.77;58.68
59545;BME280;45368;55.002;-1.592;2022-11-04T03:39:47;99816.78;;;5.28;59.49
59545;BME280;45368;55.002;-1.592;2022-11-04T03:42:14;99819.90;;;5.36;58.45
59545;BME280;45368;55.002;-1.592;2022-11-04T03:44:42;99817.95;;;5.94;56.78
59545;BME280;45368;55.002;-1.592;2022-11-04T03:47:09;99814.26;;;5.46;58.38
59545;BME280;45368;55.002;-1.592;2022-11-04T03:49:36;99816.81;;;5.50;57.29
59545;BME280;45368;55.002;-1.592;2022-11-04T03:52:03;99821.85;;;6.04;56.88
59545;BME280;45368;55.002;-1.592;2022-11-04T03:54:31;99833.12;;;5.66;57.32
59545;BME280;45368;55.002;-1.592;2022-11-04T03:57:15;99843.50;;;5.90;57.54
59545;BME280;45368;55.002;-1.592;2022-11-04T04:00:00;99841.11;;;6.01;57.29
59545;BME280;45368;55.002;-1.592;2022-11-04T04:02:36;99845.56;;;5.28;58.69
59545;BME280;45368;55.002;-1.592;2022-11-04T04:05:11;99840.13;;;6.03;57.19
59545;BME280;45368;55.002;-1.592;2022-11-04T04:07:48;99837.54;;;6.61;55.88
59545;BME280;45368;55.002;-1.592;2022-11-04T04:10:18;99847.43;;;5.56;58.24
59545;BME280;45368;55.002;-1.592;2022-11-04T04:12:49;99851.57;;;4.72;60.26
59545;BME280;45368;55.002;-1.592;2022-11-04T04:15:22;99855.75;;;4.83;60.04
59545;BME280;45368;55.002;-1.592;2022-11-04T04:17:53;99862.93;;;5.14;59.52
59545;BME280;45368;55.002;-1.592;2022-11-04T04:20:24;99863.29;;;5.98;57.63
59545;BME280;45368;55.002;-1.592;2022-11-04T04:22:55;99873.02;;;5.74;57.64
59545;BME280;45368;55.002;-1.592;2022-11-04T04:25:26;99877.03;;;6.45;56.76
59545;BME280;45368;55.002;-1.592;2022-11-04T04:27:55;99883.71;;;5.66;58.45
59545;BME280;45368;55.002;-1.592;2022-11-04T04:30:23;99879.99;;;5.77;57.78
59545;BME280;45368;55.002;-1.592;2022-11-04T04:32:54;99885.05;;;5.79;57.80
59545;BME280;45368;55.002;-1.592;2022-11-04T04:35:25;99898.83;;;5.62;58.21
59545;BME280;45368;55.002;-1.592;2022-11-04T04:37:57;99903.79;;;5.09;59.77
59545;BME280;45368;55.002;-1.592;2022-11-04T04:40:27;99904.97;;;5.48;58.66
59545;BME280;45368;55.002;-1.592;2022-11-04T04:42:56;99899.62;;;5.66;58.02
59545;BME280;45368;55.002;-1.592;2022-11-04T04:45:27;99898.50;;;5.85;57.41
59545;BME280;45368;55.002;-1.592;2022-11-04T04:47:56;99909.88;;;5.98;58.17
59545;BME280;45368;55.002;-1.592;2022-11-04T04:50:27;99915.11;;;5.11;59.87
59545;BME280;45368;55.002;-1.592;2022-11-04T04:52:58;99925.35;;;5.13;59.65
59545;BME280;45368;55.002;-1.592;2022-11-04T04:55:26;99926.71;;;5.72;58.44
59545;BME280;45368;55.002;-1.592;2022-11-04T04:57:53;99927.67;;;6.24;57.68
59545;BME280;45368;55.002;-1.592;2022-11-04T05:00:20;99930.46;;;6.04;57.89
59545;BME280;45368;55.002;-1.592;2022-11-04T05:02:47;99932.86;;;5.77;58.46
59545;BME280;45368;55.002;-1.592;2022-11-04T05:05:16;99940.95;;;5.57;58.75
59545;BME280;45368;55.002;-1.592;2022-11-04T05:07:43;99946.66;;;5.56;58.64
59545;BME280;45368;55.002;-1.592;2022-11-04T05:10:13;99954.49;;;5.14;59.45
59545;BME280;45368;55.002;-1.592;2022-11-04T05:12:40;99960.09;;;5.06;59.87
59545;BME280;45368;55.002;-1.592;2022-11-04T05:15:08;99960.78;;;5.76;58.65
59545;BME280;45368;55.002;-1.592;2022-11-04T05:17:35;99971.22;;;4.79;60.77
59545;BME280;45368;55.002;-1.592;2022-11-04T05:20:02;99977.29;;;4.56;61.35
59545;BME280;45368;55.002;-1.592;2022-11-04T05:22:29;99981.77;;;4.41;61.39
59545;BME280;45368;55.002;-1.592;2022-11-04T05:24:56;99982.22;;;4.90;60.58
59545;BME280;45368;55.002;-1.592;2022-11-04T05:27:23;99988.43;;;5.08;60.02
59545;BME280;45368;55.002;-1.592;2022-11-04T05:29:49;99991.82;;;5.09;59.94
59545;BME280;45368;55.002;-1.592;2022-11-04T05:32:16;99986.72;;;5.21;59.60
59545;BME280;45368;55.002;-1.592;2022-11-04T05:34:43;99992.06;;;4.97;60.49
59545;BME280;45368;55.002;-1.592;2022-11-04T05:37:10;99997.17;;;4.58;61.38
59545;BME280;45368;55.002;-1.592;2022-11-04T05:39:37;100000.52;;;4.58;61.42
59545;BME280;45368;55.002;-1.592;2022-11-04T05:42:04;99994.83;;;5.29;59.72
59545;BME280;45368;55.002;-1.592;2022-11-04T05:44:32;99996.31;;;5.78;58.83
59545;BME280;45368;55.002;-1.592;2022-11-04T05:46:59;99998.98;;;5.72;57.96
59545;BME280;45368;55.002;-1.592;2022-11-04T05:49:27;100006.28;;;5.66;58.35
59545;BME280;45368;55.002;-1.592;2022-11-04T05:51:54;100008.30;;;5.03;59.05
59545;BME280;45368;55.002;-1.592;2022-11-04T05:54:21;100011.25;;;5.05;58.96
59545;BME280;45368;55.002;-1.592;2022-11-04T05:56:47;100009.83;;;6.04;57.06
59545;BME280;45368;55.002;-1.592;2022-11-04T05:59:14;100012.06;;;6.14;55.93
59545;BME280;45368;55.002;-1.592;2022-11-04T06:01:41;100012.18;;;6.38;55.58
59545;BME280;45368;55.002;-1.592;2022-11-04T06:04:13;100021.27;;;5.74;56.22
59545;BME280;45368;55.002;-1.592;2022-11-04T06:06:41;100024.87;;;5.33;57.34
59545;BME280;45368;55.002;-1.592;2022-11-04T06:09:08;100032.67;;;4.66;58.94
59545;BME280;45368;55.002;-1.592;2022-11-04T06:11:36;100033.02;;;5.07;57.32
59545;BME280;45368;55.002;-1.592;2022-11-04T06:14:04;100033.62;;;5.78;57.11
59545;BME280;45368;55.002;-1.592;2022-11-04T06:16:32;100034.00;;;5.74;58.23
59545;BME280;45368;55.002;-1.592;2022-11-04T06:18:59;100035.62;;;5.40;58.95
59545;BME280;45368;55.002;-1.592;2022-11-04T06:21:28;100031.68;;;4.99;59.15
59545;BME280;45368;55.002;-1.592;2022-11-04T06:23:56;100030.54;;;5.36;58.87
59545;BME280;45368;55.002;-1.592;2022-11-04T06:26:25;100024.34;;;5.62;58.41
59545;BME280;45368;55.002;-1.592;2022-11-04T06:28:54;100026.14;;;5.49;59.16
59545;BME280;45368;55.002;-1.592;2022-11-04T06:31:21;100028.77;;;5.86;58.29
59545;BME280;45368;55.002;-1.592;2022-11-04T06:33:49;100036.82;;;4.96;59.39
59545;BME280;45368;55.002;-1.592;2022-11-04T06:36:16;100047.71;;;4.23;61.56
59545;BME280;45368;55.002;-1.592;2022-11-04T06:38:44;100051.52;;;4.69;60.61
59545;BME280;45368;55.002;-1.592;2022-11-04T06:41:13;100055.18;;;4.38;62.28
59545;BME280;45368;55.002;-1.592;2022-11-04T06:43:41;100059.16;;;5.29;60.44
59545;BME280;45368;55.002;-1.592;2022-11-04T06:46:24;100061.86;;;4.76;61.21
59545;BME280;45368;55.002;-1.592;2022-11-04T06:48:54;100063.23;;;4.80;61.23
59545;BME280;45368;55.002;-1.592;2022-11-04T06:51:22;100065.36;;;5.01;61.16
59545;BME280;45368;55.002;-1.592;2022-11-04T06:53:50;100067.43;;;4.98;60.92
59545;BME280;45368;55.002;-1.592;2022-11-04T06:56:17;100066.89;;;4.97;60.17
59545;BME280;45368;55.002;-1.592;2022-11-04T06:58:47;100067.11;;;5.89;59.20
59545;BME280;45368;55.002;-1.592;2022-11-04T07:01:14;100071.51;;;5.41;60.51
59545;BME280;45368;55.002;-1.592;2022-11-04T07:03:42;100069.57;;;5.47;60.24
59545;BME280;45368;55.002;-1.592;2022-11-04T07:06:10;100073.52;;;4.70;61.03
59545;BME280;45368;55.002;-1.592;2022-11-04T07:08:37;100073.99;;;5.28;59.21
59545;BME280;45368;55.002;-1.592;2022-11-04T07:11:05;100076.59;;;5.70;59.87
59545;BME280;45368;55.002;-1.592;2022-11-04T07:13:32;100084.79;;;4.69;62.51
59545;BME280;45368;55.002;-1.592;2022-11-04T07:16:03;100087.93;;;5.19;62.57
59545;BME280;45368;55.002;-1.592;2022-11-04T07:18:31;100089.88;;;4.97;62.25
59545;BME280;45368;55.002;-1.592;2022-11-04T07:20:58;100089.25;;;5.21;61.15
59545;BME280;45368;55.002;-1.592;2022-11-04T07:23:26;100093.61;;;5.46;61.29
59545;BME280;45368;55.002;-1.592;2022-11-04T07:25:58;100102.98;;;5.34;60.93
59545;BME280;45368;55.002;-1.592;2022-11-04T07:28:25;100110.31;;;5.15;61.62
59545;BME280;45368;55.002;-1.592;2022-11-04T07:30:55;100113.60;;;5.14;61.46
59545;BME280;45368;55.002;-1.592;2022-11-04T07:33:22;100112.11;;;5.34;61.46
59545;BME280;45368;55.002;-1.592;2022-11-04T07:35:49;100118.57;;;5.17;62.00
59545;BME280;45368;55.002;-1.592;2022-11-04T07:38:16;100120.61;;;4.18;64.49
59545;BME280;45368;55.002;-1.592;2022-11-04T07:40:43;100126.94;;;4.66;63.87
59545;BME280;45368;55.002;-1.592;2022-11-04T07:43:11;100134.32;;;4.48;63.91
59545;BME280;45368;55.002;-1.592;2022-11-04T07:45:38;100137.06;;;4.36;63.80
59545;BME280;45368;55.002;-1.592;2022-11-04T07:48:05;100137.64;;;3.89;65.38
59545;BME280;45368;55.002;-1.592;2022-11-04T07:50:32;100138.13;;;4.15;65.63
59545;BME280;45368;55.002;-1.592;2022-11-04T07:52:59;100138.01;;;4.11;65.34
59545;BME280;45368;55.002;-1.592;2022-11-04T07:55:26;100144.47;;;4.12;66.10
59545;BME280;45368;55.002;-1.592;2022-11-04T07:57:54;100146.13;;;3.90;66.46
59545;BME280;45368;55.002;-1.592;2022-11-04T08:00:21;100151.14;;;4.00;66.34
59545;BME280;45368;55.002;-1.592;2022-11-04T08:02:48;100146.79;;;3.92;65.70
59545;BME280;45368;55.002;-1.592;2022-11-04T08:05:16;100144.67;;;4.04;65.31
59545;BME280;45368;55.002;-1.592;2022-11-04T08:07:43;100148.58;;;4.56;64.44
59545;BME280;45368;55.002;-1.592;2022-11-04T08:10:10;100148.22;;;4.19;65.08
59545;BME280;45368;55.002;-1.592;2022-11-04T08:12:38;100151.78;;;4.62;63.97
59545;BME280;45368;55.002;-1.592;2022-11-04T08:15:07;100143.88;;;5.09;62.87
59545;BME280;45368;55.002;-1.592;2022-11-04T08:17:34;100148.48;;;4.82;63.30
59545;BME280;45368;55.002;-1.592;2022-11-04T08:20:02;100151.10;;;4.10;64.30
59545;BME280;45368;55.002;-1.592;2022-11-04T08:22:29;100153.87;;;4.79;63.66
59545;BME280;45368;55.002;-1.592;2022-11-04T08:24:56;100160.61;;;4.92;63.24
59545;BME280;45368;55.002;-1.592;2022-11-04T08:27:23;100164.83;;;5.22;61.73
59545;BME280;45368;55.002;-1.592;2022-11-04T08:29:50;100167.75;;;4.92;62.60
59545;BME280;45368;55.002;-1.592;2022-11-04T08:32:17;100165.37;;;5.92;60.08
59545;BME280;45368;55.002;-1.592;2022-11-04T08:34:44;100166.07;;;5.90;60.91
59545;BME280;45368;55.002;-1.592;2022-11-04T08:37:13;100165.54;;;5.28;61.39
59545;BME280;45368;55.002;-1.592;2022-11-04T08:39:41;100166.31;;;5.14;61.82
59545;BME280;45368;55.002;-1.592;2022-11-04T08:42:09;100169.65;;;5.57;60.52
59545;BME280;45368;55.002;-1.592;2022-11-04T08:44:36;100170.00;;;5.53;61.06
59545;BME280;45368;55.002;-1.592;2022-11-04T08:47:04;100176.35;;;4.70;63.08
59545;BME280;45368;55.002;-1.592;2022-11-04T08:49:37;100178.98;;;5.12;63.09
59545;BME280;45368;55.002;-1.592;2022-11-04T08:52:04;100179.65;;;5.45;62.37
59545;BME280;45368;55.002;-1.592;2022-11-04T08:54:32;100176.54;;;5.42;61.73
59545;BME280;45368;55.002;-1.592;2022-11-04T08:56:59;100179.69;;;4.88;63.96
59545;BME280;45368;55.002;-1.592;2022-11-04T08:59:26;100181.06;;;5.24;63.50
59545;BME280;45368;55.002;-1.592;2022-11-04T09:01:53;100179.04;;;5.19;63.66
59545;BME280;45368;55.002;-1.592;2022-11-04T09:04:20;100178.11;;;5.25;62.99
59545;BME280;45368;55.002;-1.592;2022-11-04T09:06:47;100181.54;;;5.96;61.32
59545;BME280;45368;55.002;-1.592;2022-11-04T09:09:16;100177.93;;;5.26;63.04
59545;BME280;45368;55.002;-1.592;2022-11-04T09:11:44;100175.37;;;5.32;62.92
59545;BME280;45368;55.002;-1.592;2022-11-04T09:14:12;100176.71;;;5.65;62.43
59545;BME280;45368;55.002;-1.592;2022-11-04T09:16:40;100178.82;;;5.71;61.50
59545;BME280;45368;55.002;-1.592;2022-11-04T09:19:13;100179.42;;;5.99;60.56
59545;BME280;45368;55.002;-1.592;2022-11-04T09:21:41;100184.66;;;5.27;62.90
59545;BME280;45368;55.002;-1.592;2022-11-04T09:24:08;100192.71;;;5.46;63.12
59545;BME280;45368;55.002;-1.592;2022-11-04T09:26:36;100191.18;;;5.79;61.82
59545;BME280;45368;55.002;-1.592;2022-11-04T09:29:03;100193.81;;;5.81;62.37
59545;BME280;45368;55.002;-1.592;2022-11-04T09:31:30;100196.44;;;5.26;64.24
59545;BME280;45368;55.002;-1.592;2022-11-04T09:33:57;100199.97;;;5.74;61.55
59545;BME280;45368;55.002;-1.592;2022-11-04T09:36:24;100200.65;;;5.40;63.05
59545;BME280;45368;55.002;-1.592;2022-11-04T09:38:52;100195.03;;;5.20;63.90
59545;BME280;45368;55.002;-1.592;2022-11-04T09:41:33;100193.85;;;5.86;62.51
59545;BME280;45368;55.002;-1.592;2022-11-04T09:44:11;100195.18;;;5.06;64.29
59545;BME280;45368;55.002;-1.592;2022-11-04T09:46:39;100195.26;;;4.84;64.24
59545;BME280;45368;55.002;-1.592;2022-11-04T09:49:09;100195.72;;;5.22;63.92
59545;BME280;45368;55.002;-1.592;2022-11-04T09:51:40;100193.95;;;4.86;64.77
59545;BME280;45368;55.002;-1.592;2022-11-04T09:54:14;100185.22;;;5.52;62.54
59545;BME280;45368;55.002;-1.592;2022-11-04T09:56:44;100187.54;;;5.53;62.55
59545;BME280;45368;55.002;-1.592;2022-11-04T09:59:18;100188.21;;;6.66;61.39
59545;BME280;45368;55.002;-1.592;2022-11-04T10:01:55;100188.32;;;6.43;60.06
59545;BME280;45368;55.002;-1.592;2022-11-04T10:04:38;100184.56;;;6.66;59.08
59545;BME280;45368;55.002;-1.592;2022-11-04T10:07:20;100184.48;;;6.74;59.57
59545;BME280;45368;55.002;-1.592;2022-11-04T10:10:00;100187.68;;;7.76;58.22
59545;BME280;45368;55.002;-1.592;2022-11-04T10:12:45;100189.33;;;8.42;55.27
59545;BME280;45368;55.002;-1.592;2022-11-04T10:15:31;100185.55;;;9.95;52.97
59545;BME280;45368;55.002;-1.592;2022-11-04T10:18:13;100192.47;;;10.69;49.64
59545;BME280;45368;55.002;-1.592;2022-11-04T10:20:51;100195.05;;;12.15;47.70
59545;BME280;45368;55.002;-1.592;2022-11-04T10:23:22;100198.69;;;10.27;50.99
59545;BME280;45368;55.002;-1.592;2022-11-04T10:25:59;100191.60;;;10.85;49.66
59545;BME280;45368;55.002;-1.592;2022-11-04T10:28:33;100187.34;;;10.92;48.90
59545;BME280;45368;55.002;-1.592;2022-11-04T10:31:04;100168.14;;;11.86;46.98
59545;BME280;45368;55.002;-1.592;2022-11-04T10:33:36;100154.61;;;13.59;43.90
59545;BME280;45368;55.002;-1.592;2022-11-04T10:36:07;100162.84;;;12.21;45.78
59545;BME280;45368;55.002;-1.592;2022-11-04T10:38:38;100166.43;;;12.25;46.44
59545;BME280;45368;55.002;-1.592;2022-11-04T10:41:21;100166.97;;;12.37;46.50
59545;BME280;45368;55.002;-1.592;2022-11-04T10:43:53;100166.88;;;12.75;44.71
59545;BME280;45368;55.002;-1.592;2022-11-04T10:46:34;100169.12;;;14.16;42.75
59545;BME280;45368;55.002;-1.592;2022-11-04T10:49:19;100176.87;;;14.40;42.15
59545;BME280;45368;55.002;-1.592;2022-11-04T10:51:53;100187.01;;;12.51;44.36
59545;BME280;45368;55.002;-1.592;2022-11-04T10:54:21;100185.49;;;13.26;44.81
59545;BME280;45368;55.002;-1.592;2022-11-04T10:56:53;100195.94;;;12.77;44.80
59545;BME280;45368;55.002;-1.592;2022-11-04T10:59:23;100186.88;;;12.75;44.68
59545;BME280;45368;55.002;-1.592;2022-11-04T11:01:52;100183.78;;;13.01;43.90
59545;BME280;45368;55.002;-1.592;2022-11-04T11:04:27;100179.21;;;14.41;41.64
59545;BME280;45368;55.002;-1.592;2022-11-04T11:06:56;100179.55;;;14.30;40.87
59545;BME280;45368;55.002;-1.592;2022-11-04T11:09:26;100190.14;;;13.18;42.78
59545;BME280;45368;55.002;-1.592;2022-11-04T11:11:55;100192.76;;;12.56;44.91
59545;BME280;45368;55.002;-1.592;2022-11-04T11:14:32;100185.69;;;16.12;39.41
59545;BME280;45368;55.002;-1.592;2022-11-04T11:17:21;100190.46;;;15.14;40.26
59545;BME280;45368;55.002;-1.592;2022-11-04T11:19:53;100187.99;;;14.07;41.48
59545;BME280;45368;55.002;-1.592;2022-11-04T11:22:40;100187.20;;;13.23;43.18
59545;BME280;45368;55.002;-1.592;2022-11-04T11:25:26;100190.06;;;11.36;48.08
59545;BME280;45368;55.002;-1.592;2022-11-04T11:27:56;100194.17;;;10.55;51.09
59545;BME280;45368;55.002;-1.592;2022-11-04T11:30:27;100188.69;;;9.75;52.34
59545;BME280;45368;55.002;-1.592;2022-11-04T11:32:58;100191.60;;;9.28;54.34
59545;BME280;45368;55.002;-1.592;2022-11-04T11:35:31;100200.44;;;8.80;56.54
59545;BME280;45368;55.002;-1.592;2022-11-04T11:38:00;100203.75;;;8.50;56.69
59545;BME280;45368;55.002;-1.592;2022-11-04T11:40:30;100198.03;;;8.02;58.07
59545;BME280;45368;55.002;-1.592;2022-11-04T11:42:58;100190.10;;;8.64;57.44
59545;BME280;45368;55.002;-1.592;2022-11-04T11:45:27;100187.47;;;8.83;56.68
59545;BME280;45368;55.002;-1.592;2022-11-04T11:47:54;100192.74;;;8.26;57.65
59545;BME280;45368;55.002;-1.592;2022-11-04T11:50:24;100193.34;;;8.42;57.83
59545;BME280;45368;55.002;-1.592;2022-11-04T11:52:51;100196.95;;;8.51;56.71
59545;BME280;45368;55.002;-1.592;2022-11-04T11:55:22;100196.07;;;8.85;56.43
59545;BME280;45368;55.002;-1.592;2022-11-04T11:57:59;100204.42;;;9.26;55.72
59545;BME280;45368;55.002;-1.592;2022-11-04T12:00:30;100202.14;;;8.96;56.39
59545;BME280;45368;55.002;-1.592;2022-11-04T12:03:04;100211.55;;;9.01;55.98
59545;BME280;45368;55.002;-1.592;2022-11-04T12:05:41;100202.82;;;9.05;56.30
59545;BME280;45368;55.002;-1.592;2022-11-04T12:08:29;100195.83;;;9.12;55.28
59545;BME280;45368;55.002;-1.592;2022-11-04T12:11:04;100201.20;;;9.38;55.75
59545;BME280;45368;55.002;-1.592;2022-11-04T12:13:38;100201.83;;;8.97;56.00
59545;BME280;45368;55.002;-1.592;2022-11-04T12:16:19;100197.11;;;9.23;55.27
59545;BME280;45368;55.002;-1.592;2022-11-04T12:19:04;100201.90;;;8.86;56.35
59545;BME280;45368;55.002;-1.592;2022-11-04T12:21:40;100204.05;;;9.04;56.87
59545;BME280;45368;55.002;-1.592;2022-11-04T12:24:16;100207.86;;;9.15;56.66
59545;BME280;45368;55.002;-1.592;2022-11-04T12:26:54;100212.77;;;9.45;56.04
59545;BME280;45368;55.002;-1.592;2022-11-04T12:29:34;100220.72;;;9.65;56.09
59545;BME280;45368;55.002;-1.592;2022-11-04T12:32:12;100217.41;;;9.26;55.60
59545;BME280;45368;55.002;-1.592;2022-11-04T12:34:51;100218.86;;;9.51;55.80
59545;BME280;45368;55.002;-1.592;2022-11-04T12:37:28;100212.58;;;9.49;55.76
59545;BME280;45368;55.002;-1.592;2022-11-04T12:40:11;100206.62;;;10.06;54.84
59545;BME280;45368;55.002;-1.592;2022-11-04T12:42:46;100208.42;;;9.80;54.89
59545;BME280;45368;55.002;-1.592;2022-11-04T12:45:23;100218.60;;;9.83;55.30
59545;BME280;45368;55.002;-1.592;2022-11-04T12:48:00;100219.36;;;9.52;56.90
59545;BME280;45368;55.002;-1.592;2022-11-04T12:50:38;100223.89;;;9.30;56.56
59545;BME280;45368;55.002;-1.592;2022-11-04T12:54:30;100223.27;;;9.31;56.20
59545;BME280;45368;55.002;-1.592;2022-11-04T12:57:10;100228.86;;;9.56;55.23
59545;BME280;45368;55.002;-1.592;2022-11-04T12:59:53;100228.59;;;9.76;56.04
59545;BME280;45368;55.002;-1.592;2022-11-04T13:02:28;100226.38;;;10.25;55.46
59545;BME280;45368;55.002;-1.592;2022-11-04T13:05:00;100227.37;;;9.67;56.46
59545;BME280;45368;55.002;-1.592;2022-11-04T13:07:32;100228.40;;;10.05;55.27
59545;BME280;45368;55.002;-1.592;2022-11-04T13:10:05;100231.72;;;10.15;55.19
59545;BME280;45368;55.002;-1.592;2022-11-04T13:12:38;100234.48;;;10.12;55.40